Time;durP1;ratioP1;P1;durP2;ratioP2;P2;SDS_P1;SDS_P2;PMS_P1;PMS_P2;Temp;Humidity;BMP_temperature;BMP_pressure;BME280_temperature;BME280_humidity;BME280_pressure;Samples;Min_cycle;Max_cycle;Signal;HPM_P1;HPM_P2
2020/12/20 00:00:56;;;;;;;12.50;3.80;;;11.60;99.90;;;;;;4997372;28;20526;-82
2020/12/20 00:03:21;;;;;;;10.60;3.40;;;11.50;99.90;;;;;;4997297;28;20180;-83
2020/12/20 00:05:47;;;;;;;11.53;3.17;;;11.50;99.90;;;;;;5000819;28;20159;-82
2020/12/20 00:08:13;;;;;;;10.27;3.80;;;11.50;99.90;;;;;;5004896;28;20270;-84
2020/12/20 00:10:39;;;;;;;9.73;3.30;;;11.50;99.90;;;;;;5004101;28;20237;-83
2020/12/20 00:13:05;;;;;;;9.87;3.30;;;11.50;99.90;;;;;;5001892;28;20579;-83
2020/12/20 00:15:33;;;;;;;13.53;3.60;;;11.40;99.90;;;;;;5000401;28;20167;-84
2020/12/20 00:17:59;;;;;;;10.03;3.80;;;11.40;99.90;;;;;;5017630;28;20235;-83
2020/12/20 00:20:24;;;;;;;7.63;3.20;;;11.30;99.90;;;;;;4997053;28;20625;-83
2020/12/20 00:22:50;;;;;;;10.90;3.90;;;11.40;99.90;;;;;;4996522;28;20173;-82
2020/12/20 00:25:16;;;;;;;10.57;3.20;;;11.40;99.90;;;;;;4997115;28;20165;-83
2020/12/20 00:27:43;;;;;;;9.83;3.37;;;11.30;99.90;;;;;;4996865;28;20205;-84
2020/12/20 00:30:10;;;;;;;10.07;3.10;;;11.40;99.90;;;;;;4996994;28;20170;-81
2020/12/20 00:32:36;;;;;;;12.17;3.10;;;11.40;99.90;;;;;;4996935;28;20184;-84
2020/12/20 00:35:05;;;;;;;11.07;3.43;;;11.40;99.90;;;;;;4996109;28;20284;-83
2020/12/20 00:37:30;;;;;;;6.93;3.07;;;11.50;99.90;;;;;;4995465;28;20535;-84
2020/12/20 00:39:56;;;;;;;11.73;4.23;;;11.50;99.90;;;;;;4994809;28;20164;-83
2020/12/20 00:42:22;;;;;;;10.40;3.40;;;11.40;99.90;;;;;;4996288;28;20171;-83
2020/12/20 00:44:48;;;;;;;14.70;3.90;;;11.50;99.90;;;;;;5012869;28;20190;-83
2020/12/20 00:47:13;;;;;;;9.30;3.57;;;11.40;99.90;;;;;;4995071;28;20241;-83
2020/12/20 00:49:39;;;;;;;14.10;3.40;;;11.50;99.90;;;;;;4994764;28;20292;-82
2020/12/20 00:52:06;;;;;;;10.90;3.27;;;11.40;99.90;;;;;;4995043;28;20620;-84
2020/12/20 00:54:32;;;;;;;16.30;3.40;;;11.40;99.90;;;;;;4995490;28;20189;-83
2020/12/20 00:56:58;;;;;;;10.67;3.33;;;11.50;99.90;;;;;;5012903;28;20227;-83
2020/12/20 00:59:24;;;;;;;8.07;3.37;;;11.60;99.90;;;;;;5012885;28;20173;-84
2020/12/20 01:01:49;;;;;;;8.20;3.20;;;11.60;99.90;;;;;;4995674;28;20172;-83
2020/12/20 01:04:15;;;;;;;12.93;3.60;;;11.50;99.90;;;;;;5013407;28;20509;-83
2020/12/20 01:06:44;;;;;;;11.40;3.27;;;11.40;99.90;;;;;;5001502;28;20172;-83
2020/12/20 01:09:15;;;;;;;10.70;3.70;;;11.40;99.90;;;;;;4999383;28;20218;-84
2020/12/20 01:11:41;;;;;;;12.13;3.57;;;11.30;99.90;;;;;;4996724;28;20165;-83
2020/12/20 01:14:07;;;;;;;10.97;3.80;;;11.30;99.90;;;;;;5013959;28;20173;-84
2020/12/20 01:16:32;;;;;;;9.57;3.53;;;11.30;99.90;;;;;;4996270;28;20627;-83
2020/12/20 01:18:58;;;;;;;11.13;3.43;;;11.30;99.90;;;;;;5013534;28;20186;-84
2020/12/20 01:21:25;;;;;;;10.23;3.47;;;11.30;99.90;;;;;;4996398;28;20176;-84
2020/12/20 01:23:50;;;;;;;7.03;3.43;;;11.30;99.90;;;;;;4996411;28;20171;-83
2020/12/20 01:26:16;;;;;;;9.53;3.53;;;11.30;99.90;;;;;;4996043;28;20177;-82
2020/12/20 01:28:42;;;;;;;19.13;4.40;;;11.40;99.90;;;;;;4996225;28;20220;-84
2020/12/20 01:31:11;;;;;;;11.10;3.13;;;11.40;99.90;;;;;;4996065;28;20165;-83
2020/12/20 01:33:38;;;;;;;15.50;3.77;;;11.40;99.90;;;;;;4996107;28;20169;-83
2020/12/20 01:36:09;;;;;;;11.67;3.87;;;11.40;99.90;;;;;;4996212;28;20315;-83
2020/12/20 01:38:34;;;;;;;5.07;3.00;;;11.40;99.90;;;;;;4996629;28;20177;-83
2020/12/20 01:41:00;;;;;;;14.20;3.73;;;11.30;99.90;;;;;;5014300;28;20653;-83
2020/12/20 01:43:38;;;;;;;10.60;3.10;;;11.30;99.90;;;;;;4996400;28;20176;-83
2020/12/20 01:46:03;;;;;;;12.27;3.77;;;11.30;99.90;;;;;;4996927;28;20161;-82
2020/12/20 01:48:29;;;;;;;9.37;3.70;;;11.40;99.90;;;;;;5001669;28;20211;-83
2020/12/20 01:50:55;;;;;;;8.10;3.30;;;11.40;99.90;;;;;;5000861;28;20171;-83
2020/12/20 01:53:20;;;;;;;7.70;3.50;;;11.40;99.90;;;;;;5017514;28;20548;-83
2020/12/20 01:55:47;;;;;;;6.17;3.23;;;11.40;99.90;;;;;;4999403;28;20174;-83
2020/12/20 01:58:13;;;;;;;10.93;3.30;;;11.30;99.90;;;;;;4999733;28;20575;-83
2020/12/20 02:00:38;;;;;;;15.47;4.17;;;11.30;99.90;;;;;;4999441;28;20264;-83
2020/12/20 02:03:04;;;;;;;12.00;3.67;;;11.40;99.90;;;;;;4999334;28;20169;-83
2020/12/20 02:05:29;;;;;;;9.60;3.67;;;11.30;99.90;;;;;;4999495;28;20173;-83
2020/12/20 02:07:55;;;;;;;14.10;3.57;;;11.30;99.90;;;;;;4999709;28;20245;-83
2020/12/20 02:10:22;;;;;;;9.17;3.70;;;11.30;99.90;;;;;;4999576;28;20636;-84
2020/12/20 02:12:48;;;;;;;10.67;3.90;;;11.30;99.90;;;;;;4999544;28;20177;-83
2020/12/20 02:15:13;;;;;;;13.07;3.83;;;11.30;99.90;;;;;;4999309;28;20195;-84
2020/12/20 02:17:39;;;;;;;9.50;3.73;;;11.30;99.90;;;;;;5016315;28;20173;-83
2020/12/20 02:20:05;;;;;;;8.90;3.70;;;11.30;99.90;;;;;;4999567;28;20264;-83
2020/12/20 02:22:32;;;;;;;13.57;3.47;;;11.30;99.90;;;;;;4999410;28;20592;-83
2020/12/20 02:24:58;;;;;;;9.33;3.53;;;11.30;99.90;;;;;;5016801;28;20276;-83
2020/12/20 02:27:24;;;;;;;15.67;3.83;;;11.20;99.90;;;;;;4999204;28;20265;-83
2020/12/20 02:29:50;;;;;;;15.17;3.30;;;11.40;99.90;;;;;;4999274;28;20173;-83
2020/12/20 02:32:16;;;;;;;10.90;4.00;;;11.30;99.90;;;;;;4998847;28;20169;-83
2020/12/20 02:34:41;;;;;;;9.67;3.30;;;11.30;99.90;;;;;;4999128;28;20173;-83
2020/12/20 02:37:07;;;;;;;14.93;3.83;;;11.30;99.90;;;;;;5016455;28;20263;-83
2020/12/20 02:39:33;;;;;;;13.77;3.63;;;11.30;99.90;;;;;;5016490;28;20173;-83
2020/12/20 02:41:58;;;;;;;11.70;3.60;;;11.40;99.90;;;;;;5016239;28;20637;-83
2020/12/20 02:44:24;;;;;;;8.40;3.97;;;11.30;99.90;;;;;;5016355;28;20193;-83
2020/12/20 02:46:49;;;;;;;16.90;3.80;;;11.30;99.90;;;;;;5016181;28;20520;-83
2020/12/20 02:49:15;;;;;;;16.77;3.90;;;11.40;99.90;;;;;;4998879;28;20345;-82
2020/12/20 02:51:41;;;;;;;10.53;3.57;;;11.30;99.90;;;;;;5016257;28;20162;-83
2020/12/20 02:54:06;;;;;;;10.83;3.87;;;11.20;99.90;;;;;;5020084;28;20640;-83
2020/12/20 02:56:32;;;;;;;13.63;3.70;;;11.30;99.90;;;;;;5006923;28;20169;-83
2020/12/20 02:58:58;;;;;;;15.70;3.17;;;11.30;99.90;;;;;;5006592;28;20193;-83
2020/12/20 03:01:24;;;;;;;13.30;3.53;;;11.30;99.90;;;;;;5002412;28;20564;-84
2020/12/20 03:03:49;;;;;;;11.53;3.90;;;11.40;99.90;;;;;;4998645;28;20162;-84
2020/12/20 03:06:15;;;;;;;9.37;3.37;;;11.30;99.90;;;;;;4998493;28;20173;-84
2020/12/20 03:08:41;;;;;;;9.17;4.13;;;11.30;99.90;;;;;;4998664;28;20212;-83
2020/12/20 03:11:06;;;;;;;14.23;3.17;;;11.30;99.90;;;;;;5016064;28;20637;-84
2020/12/20 03:13:32;;;;;;;14.13;4.43;;;11.30;99.90;;;;;;4998496;28;20223;-84
2020/12/20 03:15:58;;;;;;;14.63;4.10;;;11.30;99.90;;;;;;4998170;28;20165;-84
2020/12/20 03:18:23;;;;;;;9.33;3.43;;;11.30;99.90;;;;;;4998193;28;20180;-84
2020/12/20 03:20:49;;;;;;;12.13;3.30;;;11.30;99.90;;;;;;5015612;28;20250;-84
2020/12/20 03:23:14;;;;;;;16.63;4.13;;;11.30;99.90;;;;;;4998164;28;20169;-83
2020/12/20 03:25:40;;;;;;;14.60;4.13;;;11.30;99.90;;;;;;4998212;28;20219;-83
2020/12/20 03:28:05;;;;;;;8.90;3.43;;;11.30;99.90;;;;;;4997860;28;20575;-82
2020/12/20 03:30:31;;;;;;;15.17;3.87;;;11.40;99.90;;;;;;4997801;28;20184;-84
2020/12/20 03:32:57;;;;;;;12.37;4.07;;;11.30;99.90;;;;;;4997858;28;20638;-83
2020/12/20 03:35:23;;;;;;;17.83;3.57;;;11.30;99.90;;;;;;4997938;28;20264;-83
2020/12/20 03:37:54;;;;;;;10.47;3.53;;;11.30;99.90;;;;;;4997697;28;20166;-83
2020/12/20 03:40:22;;;;;;;17.90;4.50;;;11.20;99.90;;;;;;4997981;28;20549;-84
2020/12/20 03:42:48;;;;;;;16.23;3.63;;;11.20;99.90;;;;;;5015058;28;20177;-83
2020/12/20 03:45:18;;;;;;;14.70;3.73;;;11.30;99.90;;;;;;4997672;28;20233;-83
2020/12/20 03:47:44;;;;;;;15.33;3.83;;;11.30;99.90;;;;;;4997566;28;20202;-84
2020/12/20 03:50:10;;;;;;;13.60;3.27;;;11.30;99.90;;;;;;5015230;28;20261;-84
2020/12/20 03:52:35;;;;;;;11.00;4.00;;;11.20;99.90;;;;;;4997216;28;20205;-83
2020/12/20 03:55:02;;;;;;;16.03;3.57;;;11.20;99.90;;;;;;5014972;28;20549;-84
2020/12/20 03:57:28;;;;;;;20.07;4.07;;;11.20;99.90;;;;;;4997285;28;20200;-84
2020/12/20 03:59:53;;;;;;;16.87;3.67;;;11.20;99.90;;;;;;4997193;28;20574;-84
2020/12/20 04:02:19;;;;;;;11.30;3.47;;;11.20;99.90;;;;;;4997495;28;20227;-83
2020/12/20 04:04:45;;;;;;;14.50;3.50;;;11.30;99.90;;;;;;4997643;28;20671;-84
2020/12/20 04:07:11;;;;;;;18.00;3.80;;;11.30;99.90;;;;;;4998372;28;20216;-84
2020/12/20 04:09:36;;;;;;;13.87;3.73;;;11.30;99.90;;;;;;5013975;28;20534;-83
2020/12/20 04:12:03;;;;;;;10.37;3.80;;;11.20;99.90;;;;;;4997061;28;20172;-82
2020/12/20 04:14:30;;;;;;;20.00;3.60;;;11.20;99.90;;;;;;4997047;28;20192;-83
2020/12/20 04:16:55;;;;;;;17.77;4.33;;;11.10;99.90;;;;;;4997568;28;20169;-83
2020/12/20 04:19:21;;;;;;;13.37;4.07;;;11.10;99.90;;;;;;5014573;28;20252;-83
2020/12/20 04:21:47;;;;;;;16.10;4.47;;;11.10;99.90;;;;;;5014641;28;20174;-83
2020/12/20 04:24:12;;;;;;;13.57;3.83;;;11.00;99.90;;;;;;4997122;28;20180;-84
2020/12/20 04:26:38;;;;;;;12.50;4.20;;;11.00;99.90;;;;;;5014515;28;20170;-84
2020/12/20 04:29:03;;;;;;;15.07;3.97;;;11.10;99.90;;;;;;5014039;28;20565;-84
2020/12/20 04:31:29;;;;;;;11.37;3.60;;;11.00;99.90;;;;;;4996894;28;20174;-84
2020/12/20 04:33:55;;;;;;;11.77;4.73;;;11.00;99.90;;;;;;4996810;28;20169;-84
2020/12/20 04:36:20;;;;;;;16.43;4.20;;;11.10;99.90;;;;;;4996880;28;20681;-84
2020/12/20 04:38:46;;;;;;;17.10;4.23;;;11.10;99.90;;;;;;5014219;28;20201;-83
2020/12/20 04:41:11;;;;;;;14.37;4.20;;;11.20;99.90;;;;;;5014409;28;20177;-83
2020/12/20 04:43:39;;;;;;;14.03;4.47;;;11.10;99.90;;;;;;4996537;28;20267;-84
2020/12/20 04:46:05;;;;;;;18.07;4.57;;;11.10;99.90;;;;;;4996899;28;20223;-84
2020/12/20 04:48:37;;;;;;;11.30;4.10;;;11.00;99.90;;;;;;4996581;28;20247;-84
2020/12/20 04:51:05;;;;;;;15.40;4.90;;;11.00;99.90;;;;;;4996660;28;20173;-83
2020/12/20 04:53:31;;;;;;;17.07;4.90;;;11.00;99.90;;;;;;4996513;28;20191;-83
2020/12/20 04:56:08;;;;;;;15.07;4.60;;;11.00;99.90;;;;;;4996378;28;20178;-83
2020/12/20 04:58:35;;;;;;;12.23;4.23;;;10.90;99.90;;;;;;4996418;28;20165;-84
2020/12/20 05:01:02;;;;;;;17.73;4.77;;;11.00;99.90;;;;;;4996329;28;20200;-83
2020/12/20 05:03:28;;;;;;;21.50;4.77;;;10.90;99.90;;;;;;4996459;28;20653;-83
2020/12/20 05:05:54;;;;;;;19.37;4.70;;;11.00;99.90;;;;;;5013795;28;20173;-83
2020/12/20 05:08:21;;;;;;;17.57;4.70;;;11.00;99.90;;;;;;4996279;28;20200;-81
2020/12/20 05:10:48;;;;;;;19.37;4.13;;;11.10;99.90;;;;;;4995915;28;20175;-83
2020/12/20 05:13:14;;;;;;;15.67;4.37;;;11.10;99.90;;;;;;4996372;28;20184;-83
2020/12/20 05:15:39;;;;;;;15.07;3.83;;;11.00;99.90;;;;;;4996127;28;20551;-83
2020/12/20 05:18:07;;;;;;;16.33;4.20;;;10.90;99.90;;;;;;5013649;28;20198;-83
2020/12/20 05:20:41;;;;;;;14.27;3.67;;;10.80;99.90;;;;;;4997795;28;20650;-82
2020/12/20 05:23:08;;;;;;;15.83;3.80;;;10.90;99.90;;;;;;4999989;28;20174;-83
2020/12/20 05:25:35;;;;;;;20.30;4.47;;;10.90;99.90;;;;;;5017470;28;20178;-83
2020/12/20 05:28:23;;;;;;;14.23;4.30;;;10.90;99.90;;;;;;5000035;28;20254;-82
2020/12/20 05:30:49;;;;;;;17.87;4.53;;;10.90;99.90;;;;;;5000064;28;20169;-83
2020/12/20 05:33:29;;;;;;;18.23;4.47;;;10.80;99.90;;;;;;5000215;28;20262;-82
2020/12/20 05:35:59;;;;;;;14.70;3.73;;;10.70;99.90;;;;;;4999740;28;20196;-82
2020/12/20 05:38:24;;;;;;;17.43;4.47;;;10.80;99.90;;;;;;4999879;28;20169;-82
2020/12/20 05:40:50;;;;;;;14.60;4.10;;;10.80;99.90;;;;;;5000464;28;20176;-82
2020/12/20 05:43:22;;;;;;;21.77;4.23;;;10.80;99.90;;;;;;5020769;28;20165;-81
2020/12/20 05:45:48;;;;;;;12.13;3.70;;;10.90;99.90;;;;;;5003855;28;20239;-82
2020/12/20 05:48:19;;;;;;;21.03;4.30;;;10.90;99.90;;;;;;5018443;28;20676;-84
2020/12/20 05:51:07;;;;;;;11.90;4.07;;;10.80;99.90;;;;;;4999717;28;20260;-84
2020/12/20 05:53:34;;;;;;;16.90;4.20;;;10.80;99.90;;;;;;4999747;28;20285;-84
2020/12/20 05:56:01;;;;;;;17.00;4.53;;;10.80;99.90;;;;;;4999427;28;20169;-84
2020/12/20 05:58:34;;;;;;;19.07;4.40;;;10.80;99.90;;;;;;5017112;28;20239;-84
2020/12/20 06:01:01;;;;;;;23.43;4.60;;;10.80;99.90;;;;;;4999455;28;20201;-83
2020/12/20 06:03:27;;;;;;;12.60;3.57;;;10.70;99.90;;;;;;4999419;28;20165;-83
2020/12/20 06:05:53;;;;;;;16.53;3.93;;;10.70;99.90;;;;;;4999317;28;20176;-84
2020/12/20 06:08:23;;;;;;;17.57;3.90;;;10.70;99.90;;;;;;5016734;28;20202;-83
2020/12/20 06:10:51;;;;;;;15.97;3.47;;;10.60;99.90;;;;;;4999021;28;20184;-83
2020/12/20 06:13:19;;;;;;;17.97;4.70;;;10.60;99.90;;;;;;4999149;28;20169;-83
2020/12/20 06:15:50;;;;;;;18.13;4.50;;;10.60;99.90;;;;;;4998807;28;20173;-83
2020/12/20 06:18:23;;;;;;;15.33;3.83;;;10.50;99.90;;;;;;4999034;28;20642;-83
2020/12/20 06:20:51;;;;;;;14.30;3.87;;;10.40;99.90;;;;;;4998818;28;20633;-84
2020/12/20 06:23:25;;;;;;;11.57;3.27;;;10.40;99.90;;;;;;4998903;28;20177;-84
2020/12/20 06:25:52;;;;;;;20.07;4.17;;;10.50;99.90;;;;;;4999233;28;20168;-83
2020/12/20 06:28:27;;;;;;;18.00;4.13;;;10.50;99.90;;;;;;5016459;28;20293;-83
2020/12/20 06:30:54;;;;;;;13.90;3.80;;;10.60;99.90;;;;;;5016552;28;20178;-84
2020/12/20 06:33:23;;;;;;;21.87;4.43;;;10.60;99.90;;;;;;4998017;28;20208;-84
2020/12/20 06:35:50;;;;;;;18.40;3.47;;;10.50;99.90;;;;;;4998536;28;20273;-83
2020/12/20 06:38:20;;;;;;;20.67;4.23;;;10.50;99.90;;;;;;4998275;28;20169;-83
2020/12/20 06:40:45;;;;;;;18.67;4.07;;;10.50;99.90;;;;;;4998338;28;20201;-84
2020/12/20 06:43:11;;;;;;;21.03;3.93;;;10.50;99.90;;;;;;4998668;28;20634;-83
2020/12/20 06:45:46;;;;;;;15.83;3.90;;;10.50;99.90;;;;;;4998736;28;20645;-83
2020/12/20 06:48:13;;;;;;;20.33;3.93;;;10.50;99.90;;;;;;4998279;28;20204;-81
2020/12/20 06:50:38;;;;;;;19.50;4.23;;;10.40;99.90;;;;;;4998501;28;20173;-83
2020/12/20 06:53:08;;;;;;;19.47;3.57;;;10.40;99.90;;;;;;4998080;28;20244;-82
2020/12/20 06:55:35;;;;;;;20.50;3.30;;;10.50;99.90;;;;;;4998613;28;20179;-83
2020/12/20 06:58:08;;;;;;;25.90;4.70;;;10.50;99.90;;;;;;4998175;28;20174;-82
2020/12/20 07:00:46;;;;;;;18.07;3.43;;;10.60;99.90;;;;;;5015840;28;20169;-82
2020/12/20 07:03:21;;;;;;;17.07;3.50;;;10.60;99.90;;;;;;4998380;28;20704;-84
2020/12/20 07:05:48;;;;;;;13.43;3.57;;;10.60;99.90;;;;;;4998344;28;20205;-82
2020/12/20 07:08:24;;;;;;;13.00;3.67;;;10.60;99.90;;;;;;4998229;28;20592;-83
2020/12/20 07:10:52;;;;;;;18.67;3.97;;;10.60;99.90;;;;;;5015698;28;20228;-83
2020/12/20 07:13:48;;;;;;;20.97;3.63;;;10.50;99.90;;;;;;4998069;28;20272;-82
2020/12/20 07:16:16;;;;;;;17.53;3.93;;;10.50;99.90;;;;;;4986194;28;20178;-82
2020/12/20 07:18:46;;;;;;;14.80;3.80;;;10.50;99.90;;;;;;4998063;28;20176;-82
2020/12/20 07:21:32;;;;;;;17.97;3.70;;;10.50;99.90;;;;;;4997696;28;20208;-82
2020/12/20 07:24:19;;;;;;;19.60;3.70;;;10.40;99.90;;;;;;4998301;28;20599;-82
2020/12/20 07:26:46;;;;;;;13.60;3.97;;;10.50;99.90;;;;;;4997856;28;20569;-83
2020/12/20 07:29:12;;;;;;;16.27;3.60;;;10.50;99.90;;;;;;4997784;28;20224;-84
2020/12/20 07:31:38;;;;;;;18.40;4.10;;;10.50;99.90;;;;;;5015129;28;20176;-83
2020/12/20 07:34:06;;;;;;;17.73;4.30;;;10.50;99.90;;;;;;4997541;28;20173;-83
2020/12/20 07:36:32;;;;;;;22.53;4.77;;;10.50;99.90;;;;;;4997390;28;20243;-83
2020/12/20 07:38:58;;;;;;;18.20;4.60;;;10.50;99.90;;;;;;4997259;28;20173;-83
2020/12/20 07:41:24;;;;;;;17.90;3.80;;;10.50;99.90;;;;;;4997691;28;20633;-83
2020/12/20 07:43:51;;;;;;;18.57;4.17;;;10.50;99.90;;;;;;5014669;28;20769;-84
2020/12/20 07:46:20;;;;;;;24.23;4.30;;;10.50;99.90;;;;;;4997010;28;20161;-84
2020/12/20 07:48:45;;;;;;;19.87;3.80;;;10.50;99.90;;;;;;4996760;28;20650;-82
2020/12/20 07:51:17;;;;;;;16.80;3.73;;;10.60;99.90;;;;;;4997060;28;20196;-83
2020/12/20 07:53:51;;;;;;;17.20;4.13;;;10.60;99.90;;;;;;4996422;28;20193;-83
2020/12/20 07:56:32;;;;;;;18.23;3.87;;;10.60;99.90;;;;;;4997058;28;20169;-82
2020/12/20 07:59:09;;;;;;;17.73;4.03;;;10.50;99.90;;;;;;4996505;28;20169;-81
2020/12/20 08:01:37;;;;;;;16.00;3.80;;;10.50;99.90;;;;;;4996717;28;20161;-80
2020/12/20 08:04:11;;;;;;;16.60;4.20;;;10.40;99.90;;;;;;4996583;28;20653;-82
2020/12/20 08:06:44;;;;;;;20.07;5.00;;;10.50;99.90;;;;;;4996358;28;20169;-82
2020/12/20 08:09:15;;;;;;;16.20;3.70;;;10.50;99.90;;;;;;4996735;28;20201;-82
2020/12/20 08:11:42;;;;;;;18.50;4.13;;;10.50;99.90;;;;;;5014490;28;20260;-82
2020/12/20 08:14:15;;;;;;;19.40;4.00;;;10.40;99.90;;;;;;5014384;28;20169;-82
2020/12/20 08:16:50;;;;;;;16.30;5.43;;;10.40;99.90;;;;;;4996943;28;20162;-82
2020/12/20 08:19:19;;;;;;;16.40;3.87;;;10.40;99.90;;;;;;4996409;28;20172;-83
2020/12/20 08:22:06;;;;;;;15.40;3.73;;;10.40;99.90;;;;;;5014264;28;20170;-82
2020/12/20 08:24:47;;;;;;;16.90;4.47;;;10.40;99.90;;;;;;4996775;28;20655;-82
2020/12/20 08:27:21;;;;;;;18.80;4.63;;;10.40;99.90;;;;;;5014402;28;20256;-82
2020/12/20 08:29:55;;;;;;;20.37;4.40;;;10.30;99.90;;;;;;5002062;28;20201;-82
2020/12/20 08:32:23;;;;;;;20.90;4.90;;;10.30;99.90;;;;;;5004359;28;20169;-83
2020/12/20 08:34:50;;;;;;;20.07;3.73;;;10.40;99.90;;;;;;5016933;28;20665;-83
2020/12/20 08:37:17;;;;;;;16.20;3.80;;;10.40;99.90;;;;;;4996767;28;20178;-83
2020/12/20 08:39:44;;;;;;;24.27;3.93;;;10.40;99.90;;;;;;4996376;28;20610;-83
2020/12/20 08:42:12;;;;;;;16.87;3.90;;;10.40;99.90;;;;;;5013871;28;20170;-83
2020/12/20 08:44:39;;;;;;;18.60;4.40;;;10.50;99.90;;;;;;5013353;28;20172;-84
2020/12/20 08:47:16;;;;;;;13.87;3.80;;;10.50;99.90;;;;;;4996784;28;20207;-82
2020/12/20 08:49:54;;;;;;;18.10;4.47;;;10.60;99.90;;;;;;4996298;28;20192;-84
2020/12/20 08:52:19;;;;;;;23.97;4.60;;;10.50;99.90;;;;;;4996215;28;20176;-83
2020/12/20 08:54:50;;;;;;;21.40;4.50;;;10.50;99.90;;;;;;4995627;28;20189;-83
2020/12/20 08:57:16;;;;;;;24.60;4.50;;;10.60;99.90;;;;;;4996157;28;20252;-83
2020/12/20 08:59:44;;;;;;;19.57;4.50;;;10.60;99.90;;;;;;4996150;28;20178;-84
2020/12/20 09:02:21;;;;;;;18.13;3.97;;;10.80;99.90;;;;;;4996227;28;20170;-83
2020/12/20 09:05:02;;;;;;;16.63;3.77;;;10.70;99.90;;;;;;4994724;28;20180;-83
2020/12/20 09:07:47;;;;;;;13.80;3.60;;;10.60;99.90;;;;;;4993622;28;20180;-82
2020/12/20 09:10:14;;;;;;;16.50;4.43;;;10.70;99.90;;;;;;4995897;28;20191;-82
2020/12/20 09:12:53;;;;;;;18.00;4.80;;;10.70;99.90;;;;;;4996003;28;20252;-83
2020/12/20 09:15:30;;;;;;;20.63;5.30;;;10.70;99.90;;;;;;5013324;28;20202;-82
2020/12/20 09:18:01;;;;;;;18.87;4.30;;;10.70;99.90;;;;;;4995385;28;20625;-81
2020/12/20 09:20:28;;;;;;;15.07;3.97;;;10.70;99.90;;;;;;4995449;28;20684;-81
2020/12/20 09:22:54;;;;;;;17.20;3.80;;;10.70;99.90;;;;;;4995968;28;20178;-81
2020/12/20 09:25:33;;;;;;;21.33;4.40;;;10.70;99.90;;;;;;4995463;28;20180;-81
2020/12/20 09:28:03;;;;;;;16.50;3.77;;;10.70;99.90;;;;;;5012827;28;20205;-82
2020/12/20 09:30:43;;;;;;;16.17;4.20;;;10.60;99.90;;;;;;4995434;28;20561;-81
2020/12/20 09:33:23;;;;;;;20.73;4.10;;;10.80;99.90;;;;;;4995410;28;20227;-81
2020/12/20 09:36:06;;;;;;;20.43;3.60;;;10.90;99.90;;;;;;4995481;28;20219;-81
2020/12/20 09:38:46;;;;;;;17.60;3.80;;;10.80;99.90;;;;;;5012913;28;20606;-81
2020/12/20 09:41:17;;;;;;;20.40;3.50;;;10.80;99.90;;;;;;4992993;28;20181;-82
2020/12/20 09:43:44;;;;;;;16.40;3.40;;;10.80;99.90;;;;;;4995521;28;20295;-82
2020/12/20 09:46:21;;;;;;;18.87;4.07;;;10.80;99.90;;;;;;4995682;28;20173;-90
2020/12/20 09:48:48;;;;;;;22.67;3.93;;;11.00;99.90;;;;;;4996212;28;20223;-84
2020/12/20 09:51:14;;;;;;;18.40;3.70;;;11.00;99.90;;;;;;4995605;28;20278;-83
2020/12/20 09:53:40;;;;;;;15.30;4.03;;;11.10;99.90;;;;;;4995677;28;20217;-83
2020/12/20 09:56:05;;;;;;;14.57;2.90;;;11.10;99.90;;;;;;4995484;28;20249;-83
2020/12/20 09:58:32;;;;;;;12.10;3.83;;;11.10;99.90;;;;;;4995412;28;20540;-81
2020/12/20 10:00:57;;;;;;;17.67;4.73;;;11.10;99.90;;;;;;4995216;28;20623;-85
2020/12/20 10:03:25;;;;;;;17.43;3.20;;;11.20;99.90;;;;;;4995729;28;20284;-83
2020/12/20 10:05:51;;;;;;;19.33;3.73;;;11.30;99.90;;;;;;4996029;28;20540;-85
2020/12/20 10:08:17;;;;;;;19.53;3.90;;;11.40;99.90;;;;;;4998197;28;20197;-83
2020/12/20 10:10:43;;;;;;;23.10;3.67;;;11.60;99.90;;;;;;4999287;28;20170;-82
2020/12/20 10:13:09;;;;;;;14.43;3.80;;;11.70;99.90;;;;;;4999268;28;20633;-82
2020/12/20 10:15:34;;;;;;;13.57;3.00;;;11.70;99.90;;;;;;4999008;28;20179;-83
2020/12/20 10:18:04;;;;;;;20.13;4.37;;;11.90;99.90;;;;;;4999236;28;20233;-84
2020/12/20 10:20:32;;;;;;;14.37;4.20;;;11.90;99.90;;;;;;5015950;28;20203;-84
2020/12/20 10:22:59;;;;;;;13.77;3.23;;;12.00;99.90;;;;;;4998951;28;20195;-84
2020/12/20 10:25:25;;;;;;;21.63;3.23;;;12.00;99.90;;;;;;4999219;28;20295;-84
2020/12/20 10:27:53;;;;;;;18.80;3.23;;;11.90;99.90;;;;;;4998584;28;20355;-84
2020/12/20 10:30:19;;;;;;;16.30;3.93;;;11.90;99.90;;;;;;4995632;28;20179;-84
2020/12/20 10:32:47;;;;;;;25.07;4.03;;;11.90;99.90;;;;;;4998617;28;20630;-81
2020/12/20 10:35:13;;;;;;;21.70;4.00;;;12.00;99.90;;;;;;4998566;28;20197;-83
2020/12/20 10:37:39;;;;;;;25.37;4.30;;;12.20;99.90;;;;;;4998420;28;20260;-83
2020/12/20 10:40:05;;;;;;;18.80;3.40;;;12.40;99.90;;;;;;4998412;28;20207;-83
2020/12/20 10:42:30;;;;;;;16.23;3.53;;;13.00;99.90;;;;;;4998398;28;20177;-82
2020/12/20 10:44:56;;;;;;;15.93;3.83;;;13.20;99.90;;;;;;4997494;28;20173;-83
2020/12/20 10:47:25;;;;;;;13.40;3.20;;;13.60;99.90;;;;;;4997622;28;20188;-82
2020/12/20 10:49:51;;;;;;;25.83;4.30;;;14.10;99.90;;;;;;5015499;28;20618;-81
2020/12/20 10:52:17;;;;;;;21.33;4.27;;;14.30;99.90;;;;;;4997920;28;20304;-81
2020/12/20 10:54:44;;;;;;;16.57;4.00;;;14.40;99.90;;;;;;5015331;28;20280;-81
2020/12/20 10:57:10;;;;;;;14.77;4.07;;;14.20;99.90;;;;;;5015331;28;20176;-81
2020/12/20 10:59:35;;;;;;;14.50;4.37;;;13.70;99.90;;;;;;4997194;28;20174;-81
2020/12/20 11:02:01;;;;;;;24.10;4.63;;;13.30;99.90;;;;;;4998018;28;20609;-80
2020/12/20 11:04:27;;;;;;;17.53;4.70;;;13.00;99.90;;;;;;4997863;28;20267;-82
2020/12/20 11:06:57;;;;;;;19.37;5.20;;;12.50;99.90;;;;;;5015543;28;20525;-81
2020/12/20 11:09:26;;;;;;;17.17;5.07;;;12.30;99.90;;;;;;4997836;28;20221;-81
2020/12/20 11:11:53;;;;;;;14.17;4.67;;;12.20;99.90;;;;;;5016661;28;20180;-81
2020/12/20 11:14:19;;;;;;;17.67;5.87;;;12.10;99.90;;;;;;5003076;28;20180;-91
2020/12/20 11:16:45;;;;;;;17.87;5.63;;;12.20;99.90;;;;;;5012983;28;20169;-92
2020/12/20 11:19:13;;;;;;;26.53;6.03;;;12.30;99.90;;;;;;5005595;28;20178;-87
2020/12/20 11:21:40;;;;;;;19.97;5.30;;;12.30;99.90;;;;;;5001009;28;20234;-91
2020/12/20 11:24:06;;;;;;;19.53;5.53;;;12.30;99.90;;;;;;4999053;28;20175;-91
2020/12/20 11:26:35;;;;;;;26.60;5.90;;;12.30;99.90;;;;;;4998726;28;20201;-91
2020/12/20 11:29:00;;;;;;;12.77;5.47;;;12.30;99.90;;;;;;4999314;28;20219;-90
2020/12/20 11:31:27;;;;;;;24.87;5.70;;;12.20;99.90;;;;;;4998734;28;20168;-90
2020/12/20 11:33:53;;;;;;;24.57;6.00;;;12.20;99.90;;;;;;4998879;28;20180;-90
2020/12/20 11:36:21;;;;;;;26.43;5.57;;;12.10;99.90;;;;;;4999095;28;20195;-90
2020/12/20 11:38:48;;;;;;;17.83;5.43;;;12.10;99.90;;;;;;4998356;28;20169;-91
2020/12/20 11:41:14;;;;;;;16.50;5.23;;;12.20;99.90;;;;;;4998996;28;20255;-91
2020/12/20 11:43:40;;;;;;;12.53;4.70;;;12.20;99.90;;;;;;4997798;28;20171;-92
2020/12/20 11:46:09;;;;;;;17.17;4.47;;;12.10;99.90;;;;;;4997951;28;20536;-87
2020/12/20 11:48:34;;;;;;;17.70;4.93;;;12.00;99.90;;;;;;4997669;28;20558;-88
2020/12/20 11:51:02;;;;;;;19.87;4.70;;;12.10;99.90;;;;;;4999498;28;20183;-87
2020/12/20 11:53:28;;;;;;;15.67;4.67;;;12.10;99.90;;;;;;4999621;28;20185;-88
2020/12/20 11:55:54;;;;;;;17.50;4.70;;;12.30;99.90;;;;;;4998133;28;20523;-88
2020/12/20 11:58:19;;;;;;;20.00;4.17;;;12.40;99.90;;;;;;4997562;28;20210;-88
2020/12/20 12:00:46;;;;;;;17.40;4.50;;;12.30;99.90;;;;;;4997683;28;20611;-85
2020/12/20 12:03:13;;;;;;;19.40;4.50;;;12.30;99.90;;;;;;4997817;28;20583;-89
2020/12/20 12:05:40;;;;;;;22.73;4.57;;;12.10;99.90;;;;;;4997602;28;20216;-87
2020/12/20 12:08:06;;;;;;;22.67;4.07;;;12.10;99.90;;;;;;4997374;28;20749;-86
2020/12/20 12:10:33;;;;;;;19.00;4.10;;;12.10;99.90;;;;;;4997721;28;20176;-88
2020/12/20 12:13:02;;;;;;;15.57;3.80;;;12.10;99.90;;;;;;4997510;28;20181;-88
2020/12/20 12:15:31;;;;;;;16.27;3.87;;;12.10;99.90;;;;;;4997666;28;20169;-89
2020/12/20 12:17:57;;;;;;;16.63;4.20;;;12.20;99.90;;;;;;4997270;28;20179;-89
2020/12/20 12:20:22;;;;;;;20.13;4.23;;;12.20;99.90;;;;;;4997275;28;20169;-90
2020/12/20 12:22:48;;;;;;;17.30;4.40;;;12.30;99.90;;;;;;4997314;28;20552;-92
2020/12/20 12:25:14;;;;;;;17.53;4.47;;;12.30;99.90;;;;;;4997444;28;20250;-86
2020/12/20 12:27:40;;;;;;;12.57;3.10;;;12.20;99.90;;;;;;4997214;28;20300;-88
2020/12/20 12:30:06;;;;;;;20.77;4.07;;;12.20;99.90;;;;;;4996650;28;20211;-86
2020/12/20 12:32:31;;;;;;;18.83;3.97;;;12.40;99.90;;;;;;4997573;28;20618;-87
2020/12/20 12:34:58;;;;;;;20.37;3.60;;;12.50;99.90;;;;;;4993997;28;20236;-85
2020/12/20 12:37:24;;;;;;;18.83;3.93;;;12.50;99.90;;;;;;4978283;28;20188;-93
2020/12/20 12:39:50;;;;;;;20.73;3.17;;;12.50;99.90;;;;;;4977796;28;20178;-94
2020/12/20 12:42:16;;;;;;;13.90;3.87;;;12.50;99.90;;;;;;4977469;28;20562;-94